createdAt,value
2023-03-29T00:01:35.774Z,97738.19
2023-03-29T00:04:22.209Z,97747.63
2023-03-29T00:07:07.555Z,97748.44
2023-03-29T00:09:53.181Z,97748.44
2023-03-29T00:12:40.604Z,97752.97
2023-03-29T00:15:26.203Z,97750.53
2023-03-29T00:18:11.711Z,97754.75
2023-03-29T00:20:59.107Z,97746.69
2023-03-29T00:23:44.690Z,97745.59
2023-03-29T00:26:29.935Z,97747.78
2023-03-29T00:29:15.153Z,97737.06
2023-03-29T00:32:00.652Z,97733.53
2023-03-29T00:34:46.169Z,97729.97
2023-03-29T00:37:31.928Z,97730.78
2023-03-29T00:40:17.521Z,97724.34
2023-03-29T00:43:03.308Z,97729.25
2023-03-29T00:45:48.638Z,97726.22
2023-03-29T00:48:34.169Z,97725.13
2023-03-29T00:51:23.076Z,97723.06
2023-03-29T00:54:14.917Z,97718.41
2023-03-29T00:57:04.077Z,97713.75
2023-03-29T00:59:51.986Z,97710.88
2023-03-29T01:02:39.795Z,97707.16
2023-03-29T01:05:40.543Z,97708.66
2023-03-29T01:08:32.174Z,97714.50
2023-03-29T01:11:23.636Z,97703.03
2023-03-29T01:14:18.665Z,97696.41
2023-03-29T01:17:05.694Z,97700.50
2023-03-29T01:20:10.577Z,97699.41
2023-03-29T01:23:21.354Z,97692.28
2023-03-29T01:26:19.659Z,97679.94
2023-03-29T01:29:18.016Z,97679.94
2023-03-29T01:32:06.956Z,97681.59
2023-03-29T01:35:11.819Z,97681.59
2023-03-29T01:38:13.408Z,97678.00
2023-03-29T01:40:58.971Z,97686.50
2023-03-29T01:43:51.496Z,97670.59
2023-03-29T01:46:53.346Z,97670.44
2023-03-29T01:50:00.595Z,97670.97
2023-03-29T01:52:57.321Z,97677.50
2023-03-29T01:55:50.042Z,97667.78
2023-03-29T01:58:39.857Z,97664.88
2023-03-29T02:01:30.139Z,97671.06
2023-03-29T02:04:21.069Z,97670.09
2023-03-29T02:07:10.586Z,97666.53
2023-03-29T02:09:58.316Z,97649.94
2023-03-29T02:12:43.708Z,97654.03
2023-03-29T02:15:29.244Z,97651.94
2023-03-29T02:18:17.789Z,97645.63
2023-03-29T02:21:04.208Z,97641.09
2023-03-29T02:23:54.702Z,97640.78
2023-03-29T02:26:40.834Z,97641.63
2023-03-29T02:29:26.346Z,97643.28
2023-03-29T02:32:28.577Z,97630.91
2023-03-29T02:35:20.725Z,97632.41
2023-03-29T02:38:10.537Z,97627.69
2023-03-29T02:40:57.862Z,97632.63
2023-03-29T02:43:46.308Z,97631.50
2023-03-29T02:46:31.751Z,97624.22
2023-03-29T02:49:17.159Z,97626.53
2023-03-29T02:52:10.932Z,97622.66
2023-03-29T02:54:57.390Z,97609.47
2023-03-29T02:57:43.903Z,97610.16
2023-03-29T03:00:32.452Z,97601.38
2023-03-29T03:03:18.008Z,97602.84
2023-03-29T03:06:06.846Z,97600.75
2023-03-29T03:08:52.701Z,97598.66
2023-03-29T03:11:38.308Z,97601.78
2023-03-29T03:14:28.219Z,97603.09
2023-03-29T03:17:15.580Z,97599.22
2023-03-29T03:20:00.925Z,97589.31
2023-03-29T03:22:49.808Z,97594.22
2023-03-29T03:25:35.889Z,97593.78
2023-03-29T03:28:22.198Z,97599.63
2023-03-29T03:31:07.850Z,97592.47
2023-03-29T03:34:23.092Z,97586.16
2023-03-29T03:37:16.019Z,97587.50
2023-03-29T03:40:01.692Z,97583.88
2023-03-29T03:42:48.686Z,97581.78
2023-03-29T03:45:34.347Z,97571.06
2023-03-29T03:48:27.991Z,97567.34
2023-03-29T03:51:36.137Z,97565.53
2023-03-29T03:54:21.855Z,97568.81
2023-03-29T03:57:39.882Z,97566.03
2023-03-29T04:00:31.022Z,97558.88
2023-03-29T04:03:44.899Z,97560.53
2023-03-29T04:06:33.172Z,97563.81
2023-03-29T04:09:37.769Z,97563.47
2023-03-29T04:12:46.715Z,97561.66
2023-03-29T04:15:33.581Z,97562.50
2023-03-29T04:18:24.443Z,97564.78
2023-03-29T04:21:14.246Z,97557.63
2023-03-29T04:23:59.919Z,97559.09
2023-03-29T04:26:47.774Z,97560.56
2023-03-29T04:29:39.946Z,97566.47
2023-03-29T04:32:36.952Z,97565.66
2023-03-29T04:35:27.235Z,97578.53
2023-03-29T04:38:13.108Z,97573.47
2023-03-29T04:41:01.278Z,97566.47
2023-03-29T04:44:09.946Z,97569.75
2023-03-29T04:46:55.659Z,97566.16
2023-03-29T04:50:08.469Z,97564.38
2023-03-29T04:53:00.342Z,97565.84
2023-03-29T04:55:47.867Z,97561.59
2023-03-29T04:58:42.248Z,97563.22
2023-03-29T05:01:29.067Z,97564.88
2023-03-29T05:04:18.423Z,97556.22
2023-03-29T05:07:19.243Z,97553.47
2023-03-29T05:10:06.811Z,97558.69
2023-03-29T05:12:54.215Z,97559.47
2023-03-29T05:15:42.014Z,97560.31
2023-03-29T05:18:29.960Z,97553.13
2023-03-29T05:21:16.000Z,97564.41
2023-03-29T05:24:04.784Z,97558.03
2023-03-29T05:27:09.936Z,97550.84
2023-03-29T05:29:56.509Z,97546.47
2023-03-29T05:32:54.695Z,97556.06
2023-03-29T05:35:43.806Z,97551.69
2023-03-29T05:38:30.245Z,97548.13
2023-03-29T05:41:17.812Z,97547.13
2023-03-29T05:44:15.582Z,97544.38
2023-03-29T05:47:03.158Z,97535.69
2023-03-29T05:49:48.388Z,97540.78
2023-03-29T05:52:38.897Z,97543.22
2023-03-29T05:55:24.774Z,97527.41
2023-03-29T05:58:13.015Z,97524.63
2023-03-29T06:01:00.505Z,97529.53
2023-03-29T06:04:09.331Z,97531.00
2023-03-29T06:07:02.178Z,97532.31
2023-03-29T06:09:48.526Z,97540.81
2023-03-29T06:12:36.466Z,97536.25
2023-03-29T06:15:25.661Z,97534.28
2023-03-29T06:18:24.628Z,97544.59
2023-03-29T06:21:10.814Z,97539.38
2023-03-29T06:23:56.512Z,97527.94
2023-03-29T06:26:42.857Z,97533.00
2023-03-29T06:29:28.297Z,97521.25
2023-03-29T06:32:13.476Z,97523.38
2023-03-29T06:35:18.852Z,97532.69
2023-03-29T06:38:11.311Z,97527.16
2023-03-29T06:41:15.093Z,97526.50
2023-03-29T06:44:20.858Z,97531.38
2023-03-29T06:47:17.586Z,97523.88
2023-03-29T06:50:03.635Z,97536.44
2023-03-29T06:52:55.368Z,97540.22
2023-03-29T06:55:42.142Z,97529.28
2023-03-29T06:58:54.516Z,97531.56
2023-03-29T07:01:49.376Z,97536.47
2023-03-29T07:04:42.646Z,97535.13
2023-03-29T07:08:11.812Z,97534.47
2023-03-29T07:11:13.141Z,97532.53
2023-03-29T07:14:21.344Z,97533.34
2023-03-29T07:17:06.861Z,97528.06
2023-03-29T07:19:56.249Z,97529.88
2023-03-29T07:22:58.019Z,97527.22
2023-03-29T07:25:43.546Z,97525.72
2023-03-29T07:28:29.921Z,97526.53
2023-03-29T07:31:15.643Z,97538.59
2023-03-29T07:34:06.680Z,97525.97
2023-03-29T07:36:52.681Z,97523.97
2023-03-29T07:39:38.058Z,97526.00
2023-03-29T07:42:46.758Z,97525.78
2023-03-29T07:45:36.993Z,97521.34
2023-03-29T07:48:27.076Z,97522.91
2023-03-29T07:51:18.080Z,97517.47
2023-03-29T07:54:06.808Z,97514.78
2023-03-29T07:57:09.510Z,97513.38
2023-03-29T08:00:00.427Z,97510.53
2023-03-29T08:02:58.807Z,97508.94
2023-03-29T08:05:45.051Z,97504.28
2023-03-29T08:08:33.815Z,97503.03
2023-03-29T08:11:24.828Z,97501.94
2023-03-29T08:14:23.745Z,97499.06
2023-03-29T08:17:15.900Z,97505.03
2023-03-29T08:20:09.589Z,97500.44
2023-03-29T08:22:57.357Z,97506.78
2023-03-29T08:26:05.484Z,97508.94
2023-03-29T08:28:51.556Z,97504.06
2023-03-29T08:31:38.589Z,97511.00
2023-03-29T08:34:23.761Z,97507.13
2023-03-29T08:37:28.191Z,97509.44
2023-03-29T08:40:26.623Z,97507.16
2023-03-29T08:43:59.843Z,97502.22
2023-03-29T08:47:17.405Z,97501.00
2023-03-29T08:50:05.444Z,97499.69
2023-03-29T08:53:07.088Z,97494.31
2023-03-29T08:56:16.772Z,97500.25
2023-03-29T08:59:26.725Z,97497.31
2023-03-29T09:02:22.307Z,97500.56
2023-03-29T09:05:25.785Z,97501.63
2023-03-29T09:08:22.668Z,97497.50
2023-03-29T09:11:36.097Z,97502.84
2023-03-29T09:14:39.032Z,97498.44
2023-03-29T09:17:31.833Z,97496.28
2023-03-29T09:20:38.452Z,97503.44
2023-03-29T09:23:47.640Z,97493.63
2023-03-29T09:27:05.303Z,97483.59
2023-03-29T09:30:15.341Z,97477.38
2023-03-29T09:33:27.573Z,97478.63
2023-03-29T09:37:02.995Z,97482.50
2023-03-29T09:39:49.366Z,97485.81
2023-03-29T09:42:38.720Z,97482.00
2023-03-29T09:45:24.166Z,97475.75
2023-03-29T09:48:15.868Z,97470.91
2023-03-29T09:51:08.660Z,97466.63
2023-03-29T09:53:57.434Z,97473.31
2023-03-29T09:57:03.376Z,97472.09
2023-03-29T09:59:50.788Z,97470.41
2023-03-29T10:02:36.842Z,97458.19
2023-03-29T10:05:26.006Z,97459.31
2023-03-29T10:08:19.881Z,97462.09
2023-03-29T10:11:20.265Z,97454.28
2023-03-29T10:14:12.727Z,97443.84
2023-03-29T10:16:58.497Z,97442.50
2023-03-29T10:19:51.584Z,97451.59
2023-03-29T10:22:38.071Z,97455.22
2023-03-29T10:25:32.824Z,97456.38
2023-03-29T10:28:21.239Z,97448.53
2023-03-29T10:31:08.206Z,97447.84
2023-03-29T10:33:57.152Z,97445.13
2023-03-29T10:36:51.236Z,97437.13
2023-03-29T10:39:36.873Z,97425.47
2023-03-29T10:42:25.305Z,97430.25
2023-03-29T10:45:37.790Z,97425.88
2023-03-29T10:48:31.226Z,97413.25
2023-03-29T10:51:18.220Z,97410.19
2023-03-29T10:54:05.302Z,97409.47
2023-03-29T10:56:56.151Z,97415.94
2023-03-29T10:59:53.066Z,97414.19
2023-03-29T11:02:51.804Z,97416.41
2023-03-29T11:05:57.407Z,97420.06
2023-03-29T11:08:52.762Z,97423.28
2023-03-29T11:12:15.469Z,97424.84
2023-03-29T11:15:47.023Z,97413.78
2023-03-29T11:18:57.759Z,97417.38
2023-03-29T11:21:52.188Z,97413.72
2023-03-29T11:24:52.983Z,97404.78
2023-03-29T11:27:53.233Z,97407.91
2023-03-29T11:30:51.253Z,97394.22
2023-03-29T11:34:03.843Z,97387.31
2023-03-29T11:37:20.409Z,97386.53
2023-03-29T11:40:27.981Z,97382.00
2023-03-29T11:43:29.116Z,97389.31
2023-03-29T11:46:21.881Z,97381.22
2023-03-29T11:49:14.912Z,97368.31
2023-03-29T11:52:11.837Z,97376.28
2023-03-29T11:55:05.604Z,97376.88
2023-03-29T11:57:56.898Z,97370.53
2023-03-29T12:00:55.349Z,97368.56
2023-03-29T12:03:48.313Z,97360.25
2023-03-29T12:06:58.153Z,97355.16
2023-03-29T12:09:53.772Z,97361.50
2023-03-29T12:12:55.287Z,97344.88
2023-03-29T12:15:50.819Z,97341.50
2023-03-29T12:18:46.581Z,97343.69
2023-03-29T12:21:34.914Z,97346.50
2023-03-29T12:24:21.225Z,97349.84
2023-03-29T12:27:31.904Z,97344.16
2023-03-29T12:30:47.022Z,97332.91
2023-03-29T12:34:04.907Z,97344.81
2023-03-29T12:37:15.001Z,97337.78
2023-03-29T12:40:22.949Z,97335.53
2023-03-29T12:43:33.117Z,97335.91
2023-03-29T12:46:37.859Z,97337.50
2023-03-29T12:49:35.221Z,97332.63
2023-03-29T12:52:30.576Z,97332.00
2023-03-29T12:55:32.418Z,97322.72
2023-03-29T12:58:39.853Z,97322.16
2023-03-29T13:01:32.045Z,97314.84
2023-03-29T13:04:22.440Z,97315.50
2023-03-29T13:07:15.095Z,97309.69
2023-03-29T13:10:09.582Z,97303.31
2023-03-29T13:12:55.504Z,97303.31
2023-03-29T13:15:43.302Z,97307.69
2023-03-29T13:18:38.970Z,97317.38
2023-03-29T13:21:35.675Z,97309.25
2023-03-29T13:24:31.410Z,97312.53
2023-03-29T13:27:26.293Z,97316.06
2023-03-29T13:30:24.732Z,97312.28
2023-03-29T13:33:22.563Z,97308.41
2023-03-29T13:36:39.266Z,97315.84
2023-03-29T13:39:29.610Z,97310.53
2023-03-29T13:42:25.695Z,97305.03
2023-03-29T13:45:23.705Z,97301.91
2023-03-29T13:48:29.373Z,97297.13
2023-03-29T13:51:18.099Z,97297.06
2023-03-29T13:54:13.133Z,97310.69
2023-03-29T13:57:05.025Z,97299.13
2023-03-29T14:00:15.535Z,97299.19
2023-03-29T14:03:07.537Z,97289.06
2023-03-29T14:05:58.672Z,97289.00
2023-03-29T14:08:45.412Z,97290.28
2023-03-29T14:11:32.076Z,97303.66
2023-03-29T14:14:24.110Z,97296.63
2023-03-29T14:17:16.906Z,97297.66
2023-03-29T14:20:08.932Z,97298.75
2023-03-29T14:22:54.520Z,97288.06
2023-03-29T14:25:40.463Z,97295.63
2023-03-29T14:28:28.919Z,97295.38
2023-03-29T14:31:23.127Z,97292.78
2023-03-29T14:34:17.085Z,97301.63
2023-03-29T14:37:03.215Z,97293.44
2023-03-29T14:39:49.454Z,97304.88
2023-03-29T14:42:37.636Z,97297.00
2023-03-29T14:45:26.328Z,97296.19
2023-03-29T14:48:14.293Z,97300.50
2023-03-29T14:51:00.646Z,97293.41
2023-03-29T14:53:48.395Z,97294.03
2023-03-29T14:56:35.439Z,97293.00
2023-03-29T14:59:25.816Z,97303.41
2023-03-29T15:02:28.197Z,97302.09
2023-03-29T15:05:34.846Z,97290.28
2023-03-29T15:08:32.318Z,97292.00
2023-03-29T15:11:28.994Z,97286.66
2023-03-29T15:14:17.244Z,97277.13
2023-03-29T15:17:22.927Z,97271.75
2023-03-29T15:20:33.739Z,97274.19
2023-03-29T15:23:22.878Z,97270.41
2023-03-29T15:26:21.657Z,97266.00
2023-03-29T15:29:13.516Z,97255.31
2023-03-29T15:31:59.339Z,97259.56
2023-03-29T15:34:45.125Z,97263.88
2023-03-29T15:37:31.078Z,97253.53
2023-03-29T15:40:19.833Z,97255.41
2023-03-29T15:43:05.987Z,97256.75
2023-03-29T15:45:51.765Z,97253.94
2023-03-29T15:48:37.505Z,97239.19
2023-03-29T15:51:22.936Z,97243.84
2023-03-29T15:54:09.225Z,97253.34
2023-03-29T15:57:03.590Z,97261.00
2023-03-29T15:59:49.169Z,97268.31
2023-03-29T16:02:35.318Z,97267.91
2023-03-29T16:05:20.808Z,97259.19
2023-03-29T16:08:06.866Z,97244.91
2023-03-29T16:10:52.412Z,97252.47
2023-03-29T16:13:37.845Z,97238.19
2023-03-29T16:16:23.955Z,97234.88
2023-03-29T16:19:09.560Z,97238.72
2023-03-29T16:21:55.769Z,97244.13
2023-03-29T16:24:41.527Z,97241.28
2023-03-29T16:27:27.017Z,97247.19
2023-03-29T16:30:13.597Z,97246.28
2023-03-29T16:32:58.838Z,97239.84
2023-03-29T16:35:44.128Z,97228.88
2023-03-29T16:38:29.340Z,97232.19
2023-03-29T16:41:16.479Z,97237.16
2023-03-29T16:44:02.024Z,97236.25
2023-03-29T16:47:55.651Z,97233.72
2023-03-29T16:50:41.074Z,97242.16
2023-03-29T16:53:28.560Z,97238.91
2023-03-29T16:56:14.742Z,97237.31
2023-03-29T16:59:00.904Z,97238.00
2023-03-29T17:01:46.846Z,97235.00
2023-03-29T17:04:32.628Z,97235.72
2023-03-29T17:07:17.937Z,97230.06
2023-03-29T17:10:07.132Z,97230.28
2023-03-29T17:12:52.291Z,97235.00
2023-03-29T17:15:39.556Z,97238.09
2023-03-29T17:18:26.715Z,97230.63
2023-03-29T17:21:11.951Z,97232.69
2023-03-29T17:23:57.585Z,97224.41
2023-03-29T17:26:45.708Z,97222.78
2023-03-29T17:29:31.513Z,97225.09
2023-03-29T17:32:17.105Z,97223.94
2023-03-29T17:35:03.334Z,97221.97
2023-03-29T17:37:49.193Z,97218.97
2023-03-29T17:40:34.788Z,97222.09
2023-03-29T17:43:20.146Z,97219.09
2023-03-29T17:46:06.717Z,97217.72
2023-03-29T17:48:52.251Z,97218.75
2023-03-29T17:51:37.778Z,97231.41
2023-03-29T17:54:23.676Z,97228.75
2023-03-29T17:57:08.912Z,97231.88
2023-03-29T17:59:54.761Z,97227.00
2023-03-29T18:02:41.493Z,97230.69
2023-03-29T18:05:27.054Z,97230.94
2023-03-29T18:08:13.658Z,97230.09
2023-03-29T18:11:11.692Z,97230.94
2023-03-29T18:14:01.058Z,97239.47
2023-03-29T18:16:46.795Z,97247.41
2023-03-29T18:19:32.000Z,97243.13
2023-03-29T18:22:18.683Z,97243.94
2023-03-29T18:25:05.889Z,97253.16
2023-03-29T18:27:51.399Z,97249.91
2023-03-29T18:30:37.014Z,97260.72
2023-03-29T18:33:22.880Z,97255.66
2023-03-29T18:36:11.879Z,97251.63
2023-03-29T18:39:05.488Z,97257.59
2023-03-29T18:41:51.175Z,97259.88
2023-03-29T18:44:36.652Z,97261.38
2023-03-29T18:47:22.289Z,97268.16
2023-03-29T18:50:09.443Z,97265.13
2023-03-29T18:52:54.753Z,97265.00
2023-03-29T18:55:43.819Z,97263.25
2023-03-29T18:58:29.802Z,97263.94
2023-03-29T19:01:15.732Z,97255.63
2023-03-29T19:04:01.169Z,97253.66
2023-03-29T19:06:47.510Z,97251.44
2023-03-29T19:09:32.771Z,97244.03
2023-03-29T19:12:18.101Z,97248.84
2023-03-29T19:15:03.807Z,97243.84
2023-03-29T19:17:49.457Z,97239.22
2023-03-29T19:20:36.176Z,97242.53
2023-03-29T19:23:25.111Z,97241.53
2023-03-29T19:26:11.586Z,97238.31
2023-03-29T19:28:57.135Z,97242.78
2023-03-29T19:31:44.185Z,97240.59
2023-03-29T19:34:30.595Z,97236.19
2023-03-29T19:37:17.598Z,97229.56
2023-03-29T19:40:06.523Z,97236.91
2023-03-29T19:42:53.480Z,97232.06
2023-03-29T19:45:39.241Z,97221.94
2023-03-29T19:48:24.808Z,97221.56
2023-03-29T19:51:10.438Z,97224.63
2023-03-29T19:53:56.335Z,97221.84
2023-03-29T19:56:42.971Z,97219.66
2023-03-29T19:59:28.579Z,97215.59
2023-03-29T20:02:14.945Z,97212.38
2023-03-29T20:05:01.629Z,97216.47
2023-03-29T20:07:47.280Z,97220.56
2023-03-29T20:10:33.259Z,97209.06
2023-03-29T20:13:31.498Z,97205.44
2023-03-29T20:16:24.468Z,97196.16
2023-03-29T20:19:10.393Z,97195.41
2023-03-29T20:21:57.303Z,97193.63
2023-03-29T20:24:42.872Z,97195.31
2023-03-29T20:27:29.420Z,97180.75
2023-03-29T20:30:14.801Z,97181.63
2023-03-29T20:33:00.353Z,97178.03
2023-03-29T20:35:47.229Z,97168.75
2023-03-29T20:38:33.139Z,97171.66
2023-03-29T20:41:19.705Z,97163.78
2023-03-29T20:44:05.679Z,97165.66
2023-03-29T20:47:03.933Z,97169.38
2023-03-29T20:49:54.314Z,97162.50
2023-03-29T20:52:40.105Z,97160.75
2023-03-29T20:55:25.576Z,97161.00
2023-03-29T20:58:11.004Z,97159.44
2023-03-29T21:00:58.854Z,97153.53
2023-03-29T21:03:44.364Z,97152.13
2023-03-29T21:06:30.203Z,97155.78
2023-03-29T21:09:17.092Z,97154.59
2023-03-29T21:12:02.786Z,97152.16
2023-03-29T21:14:48.153Z,97158.47
2023-03-29T21:17:33.927Z,97150.63
2023-03-29T21:20:19.961Z,97143.56
2023-03-29T21:23:05.216Z,97147.38
2023-03-29T21:25:50.839Z,97141.53
2023-03-29T21:28:37.583Z,97141.53
2023-03-29T21:31:22.788Z,97136.25
2023-03-29T21:34:08.152Z,97120.84
2023-03-29T21:36:53.520Z,97128.19
2023-03-29T21:39:38.809Z,97127.13
2023-03-29T21:42:24.236Z,97123.31
2023-03-29T21:45:10.388Z,97109.91
2023-03-29T21:47:56.578Z,97113.97
2023-03-29T21:50:42.078Z,97110.09
2023-03-29T21:53:27.511Z,97103.38
2023-03-29T21:56:13.005Z,97104.59
2023-03-29T21:58:58.449Z,97090.19
2023-03-29T22:01:44.418Z,97088.34
2023-03-29T22:04:37.078Z,97094.44
2023-03-29T22:07:26.474Z,97092.19
2023-03-29T22:10:12.533Z,97084.06
2023-03-29T22:12:58.308Z,97073.09
2023-03-29T22:15:43.690Z,97081.38
2023-03-29T22:18:42.060Z,97079.94
2023-03-29T22:21:31.095Z,97080.34
2023-03-29T22:24:16.791Z,97093.47
2023-03-29T22:27:02.650Z,97089.75
2023-03-29T22:29:48.389Z,97094.19
2023-03-29T22:32:33.844Z,97092.53
2023-03-29T22:35:19.127Z,97094.31
2023-03-29T22:38:04.331Z,97087.97
2023-03-29T22:40:49.757Z,97080.22
2023-03-29T22:43:36.593Z,97086.44
2023-03-29T22:46:23.165Z,97080.31
2023-03-29T22:49:08.521Z,97078.53
2023-03-29T22:51:53.930Z,97079.91
2023-03-29T22:54:39.922Z,97069.84
2023-03-29T22:57:25.119Z,97073.91
2023-03-29T23:00:11.026Z,97059.31
2023-03-29T23:02:57.004Z,97053.19
2023-03-29T23:05:42.390Z,97055.06
2023-03-29T23:08:28.769Z,97053.25
2023-03-29T23:11:14.017Z,97049.44
2023-03-29T23:13:59.390Z,97047.47
2023-03-29T23:16:46.103Z,97043.69
2023-03-29T23:19:31.621Z,97044.59
2023-03-29T23:22:17.168Z,97036.22
2023-03-29T23:25:02.518Z,97039.31
2023-03-29T23:27:47.904Z,97036.75
2023-03-29T23:30:37.065Z,97029.97
2023-03-29T23:33:25.586Z,97029.50
2023-03-29T23:36:16.508Z,97033.75
2023-03-29T23:39:02.002Z,97026.03
2023-03-29T23:41:47.738Z,97025.72
2023-03-29T23:44:33.178Z,97031.47
2023-03-29T23:47:18.448Z,97035.13
2023-03-29T23:50:04.364Z,97025.25
2023-03-29T23:52:51.571Z,97021.44
2023-03-29T23:55:37.355Z,97031.94
2023-03-29T23:58:22.638Z,97021.25
